Menoken, ND

7:36 AM CDT on May 24, 2015 (GMT -0500)
Lincoln | | Change Station
CLOSE
Current Station
Personal Weather Station
Location: Lincoln, ND
Elevation: 1670 ft
Nearby Weather Stations

Elev 1670 ft 46.76 °N, 100.71 °W | Updated 5 minutes ago

Overcast
Overcast
55.2 °F
Feels Like 55.2 °F
N
3.7
Wind Variable Wind from ENE

Today
High -- | Low -- °F
--% Chance of Precip.
Yesterday
High -- | Low -- °F
Precip. -- in
5:58 AM 9:20 PM
Waxing Crescent, 39% visible
Pressure 30.07 in
Visibility 10.0 miles
Clouds Overcast 5500 ft
Dew Point 52 °F
Humidity 88%
Rainfall 0.00 in
Snow Depth Not available.
UV 0 out of 12
Pollen 2.70 out of 12
Air Quality Not available.
Flu Activity Sporadic
METAR KBIS 241152Z 06003KT 10SM OVC055 12/11 A3007 RMK AO2 SLP183 T01220106 10133 20106 56007

More Conditions Fewer Conditions

Pressure 30.07 in
Visibility 10.0 miles
Clouds Overcast 5500 ft
Dew Point 52 °F
Humidity 88%
Rainfall 0.00 in
Snow Depth Not available.
UV 0 out of 12
Pollen 2.70 out of 12
Air Quality Not available.
Flu Activity Sporadic
METAR KBIS 241152Z 06003KT 10SM OVC055 12/11 A3007 RMK AO2 SLP183 T01220106 10133 20106 56007

More Conditions Fewer Conditions

10-Day Weather Forecast

Almanac

Astronomy

May. 24, 2015 Rise Set
Actual Time
Civil Twilight
Nautical Twilight
Astronomical Twilight
Moon
Length of Visible Light
Length of Day
Tomorrow will be .
, % of the Moon is Illuminated

Today's Extremes

State Highs State Lows

Community

WunderPhotos

Upload Photos

1,823,722 photos uploaded!

WunderBlogs® & News

Nearby

Air Quality

  Air Quality AQ Index Pollutant
Not available.

Snow Depth

Station Depth Elevation

Earthquake Activity

City Distance Mag. Time & Date
Minimum magnitude displayed is 2.5.

Coastal Water Temperatures

Place Temperature

Stations

Nearby Weather Stations

Station Location Temp. Windchill Dew Point Humidity Wind Precip. Elev Updated Type